createdAt,value
2019-05-13T00:01:44.960Z,1.05
2019-05-13T00:04:14.411Z,1.10
2019-05-13T00:06:53.443Z,1.02
2019-05-13T00:09:14.799Z,0.95
2019-05-13T00:11:44.177Z,1.00
2019-05-13T00:14:13.612Z,1.20
2019-05-13T00:16:44.899Z,1.15
2019-05-13T00:19:14.375Z,1.17
2019-05-13T00:21:44.458Z,1.30
2019-05-13T00:24:14.271Z,1.30
2019-05-13T00:26:44.444Z,1.25
2019-05-13T00:29:14.350Z,1.47
2019-05-13T00:31:44.832Z,1.32
2019-05-13T00:34:14.523Z,1.60
2019-05-13T00:36:44.590Z,2.02
2019-05-13T00:39:15.296Z,2.05
2019-05-13T00:41:44.895Z,2.47
2019-05-13T00:44:14.433Z,2.25
2019-05-13T00:46:44.403Z,2.33
2019-05-13T00:49:13.851Z,2.80
2019-05-13T00:51:44.455Z,2.25
2019-05-13T00:54:15.033Z,1.22
2019-05-13T00:56:44.490Z,1.35
2019-05-13T00:59:14.307Z,1.30
2019-05-13T01:01:44.730Z,1.35
2019-05-13T01:04:14.458Z,1.10
2019-05-13T01:06:43.929Z,1.10
2019-05-13T01:09:14.562Z,1.20
2019-05-13T01:11:43.987Z,1.12
2019-05-13T01:14:14.357Z,1.10
2019-05-13T01:16:44.378Z,1.35
2019-05-13T01:19:14.335Z,1.40
2019-05-13T01:21:43.906Z,1.15
2019-05-13T01:24:14.384Z,1.20
2019-05-13T01:26:44.115Z,1.50
2019-05-13T01:29:13.703Z,1.20
2019-05-13T01:31:43.544Z,1.32
2019-05-13T01:34:14.245Z,1.12
2019-05-13T01:36:44.883Z,1.40
2019-05-13T01:39:14.222Z,1.30
2019-05-13T01:41:43.931Z,1.00
2019-05-13T01:44:14.037Z,1.10
2019-05-13T01:46:43.849Z,1.22
2019-05-13T01:49:13.651Z,1.30
2019-05-13T01:51:44.077Z,1.40
2019-05-13T01:54:14.225Z,1.00
2019-05-13T01:56:44.244Z,1.22
2019-05-13T01:59:15.249Z,1.37
2019-05-13T02:01:44.776Z,1.25
2019-05-13T02:04:14.384Z,1.10
2019-05-13T02:06:44.411Z,1.12
2019-05-13T02:09:14.329Z,1.00
2019-05-13T02:11:46.490Z,0.90
2019-05-13T02:14:14.835Z,1.00
2019-05-13T02:16:44.585Z,0.70
2019-05-13T02:19:14.358Z,1.10
2019-05-13T02:21:43.999Z,1.00
2019-05-13T02:24:14.631Z,0.93
2019-05-13T02:26:44.157Z,0.80
2019-05-13T02:29:14.406Z,0.70
2019-05-13T02:31:50.885Z,0.90
2019-05-13T02:34:14.996Z,0.85
2019-05-13T02:36:44.501Z,0.75
2019-05-13T02:39:15.383Z,0.60
2019-05-13T02:41:44.836Z,0.60
2019-05-13T02:44:14.317Z,0.60
2019-05-13T02:46:44.570Z,0.82
2019-05-13T02:49:14.080Z,0.60
2019-05-13T02:51:46.231Z,0.60
2019-05-13T02:54:15.661Z,0.50
2019-05-13T02:56:45.044Z,0.60
2019-05-13T02:59:14.459Z,0.80
2019-05-13T03:01:43.913Z,0.70
2019-05-13T03:04:13.523Z,0.62
2019-05-13T03:06:43.934Z,0.30
2019-05-13T03:09:13.378Z,0.35
2019-05-13T03:11:42.824Z,0.60
2019-05-13T03:14:12.913Z,0.57
2019-05-13T03:16:52.866Z,0.78
2019-05-13T03:19:22.655Z,0.42
2019-05-13T03:21:52.792Z,0.50
2019-05-13T03:24:23.013Z,0.50
2019-05-13T03:26:53.433Z,0.60
2019-05-13T03:29:23.999Z,0.50
2019-05-13T03:31:55.889Z,0.30
2019-05-13T03:34:26.722Z,0.40
2019-05-13T03:36:57.756Z,0.42
2019-05-13T03:39:27.606Z,0.50
2019-05-13T03:42:02.974Z,0.57
2019-05-13T03:44:32.632Z,0.60
2019-05-13T03:47:03.915Z,0.50
2019-05-13T03:49:35.661Z,0.68
2019-05-13T03:52:05.199Z,0.50
2019-05-13T03:54:35.172Z,0.50
2019-05-13T03:57:05.384Z,0.70
2019-05-13T03:59:34.815Z,0.60
2019-05-13T04:02:04.395Z,0.50
2019-05-13T04:04:33.809Z,0.47
2019-05-13T04:07:03.416Z,0.50
2019-05-13T04:09:36.261Z,0.45
2019-05-13T04:12:06.494Z,0.55
2019-05-13T04:14:35.893Z,0.40
2019-05-13T04:17:05.310Z,0.42
2019-05-13T04:19:34.829Z,0.45
2019-05-13T04:22:04.353Z,0.40
2019-05-13T04:24:34.102Z,0.50
2019-05-13T04:27:03.765Z,0.40
2019-05-13T04:29:33.676Z,0.40
2019-05-13T04:32:03.227Z,0.40
2019-05-13T04:34:33.889Z,0.50
2019-05-13T04:37:03.761Z,0.40
2019-05-13T04:39:46.044Z,0.55
2019-05-13T04:42:04.387Z,0.40
2019-05-13T04:44:33.898Z,0.45
2019-05-13T04:47:03.983Z,0.40
2019-05-13T04:49:33.815Z,0.30
2019-05-13T04:52:04.274Z,0.50
2019-05-13T04:54:35.445Z,0.50
2019-05-13T04:57:05.554Z,0.70
2019-05-13T04:59:40.047Z,0.50
2019-05-13T05:02:13.268Z,0.50
2019-05-13T05:05:13.132Z,0.70
2019-05-13T05:08:18.693Z,1.10
2019-05-13T05:11:22.265Z,0.80
2019-05-13T05:14:38.571Z,0.90
2019-05-13T05:18:21.964Z,0.70
2019-05-13T05:20:51.927Z,1.00
2019-05-13T05:27:21.346Z,0.60
2019-05-13T05:30:15.307Z,0.72
2019-05-13T05:33:05.797Z,0.70
2019-05-13T05:36:07.909Z,0.60
2019-05-13T05:45:02.829Z,0.70
2019-05-13T05:48:13.554Z,1.10
2019-05-13T05:53:47.143Z,1.00
2019-05-13T05:56:23.019Z,1.40
2019-05-13T05:59:09.135Z,1.40
2019-05-13T06:01:52.382Z,1.37
2019-05-13T06:04:26.558Z,1.25
2019-05-13T06:07:07.576Z,1.70
2019-05-13T06:12:27.970Z,0.90
2019-05-13T06:15:03.230Z,2.52
2019-05-13T06:17:36.440Z,1.05
2019-05-13T06:20:13.454Z,1.25
2019-05-13T06:22:46.117Z,1.22
2019-05-13T06:25:23.463Z,1.02
2019-05-13T06:27:58.350Z,1.25
2019-05-13T06:30:32.401Z,1.20
2019-05-13T06:33:09.047Z,1.20
2019-05-13T06:35:46.653Z,1.20
2019-05-13T06:38:22.302Z,1.20
2019-05-13T06:41:02.633Z,1.30
2019-05-13T06:43:36.327Z,1.70
2019-05-13T06:46:14.243Z,1.60
2019-05-13T06:52:02.786Z,1.07
2019-05-13T06:54:43.867Z,1.00
2019-05-13T06:57:22.052Z,1.20
2019-05-13T06:59:56.489Z,0.90
2019-05-13T07:02:48.409Z,0.90
2019-05-13T07:05:22.884Z,1.05
2019-05-13T07:07:51.230Z,0.95
2019-05-13T07:10:28.820Z,0.90
2019-05-13T07:13:04.696Z,0.98
2019-05-13T07:15:34.229Z,0.80
2019-05-13T07:18:03.681Z,0.95
2019-05-13T07:20:33.174Z,1.30
2019-05-13T07:23:07.162Z,1.00
2019-05-13T07:25:44.329Z,1.47
2019-05-13T07:28:21.992Z,1.55
2019-05-13T07:30:53.227Z,1.12
2019-05-13T07:36:15.025Z,1.25
2019-05-13T07:38:52.138Z,1.30
2019-05-13T07:41:37.568Z,2.20
2019-05-13T07:44:02.873Z,1.40
2019-05-13T07:46:35.870Z,1.10
2019-05-13T07:49:06.622Z,0.97
2019-05-13T07:51:37.616Z,0.98
2019-05-13T07:54:13.152Z,0.93
2019-05-13T07:56:42.615Z,0.98
2019-05-13T08:02:21.689Z,0.82
2019-05-13T08:05:02.417Z,0.80
2019-05-13T08:07:43.327Z,0.50
2019-05-13T08:13:12.255Z,0.50
2019-05-13T08:16:12.197Z,0.60
2019-05-13T08:18:35.861Z,0.50
2019-05-13T08:21:14.510Z,0.20
2019-05-13T08:24:06.099Z,0.50
2019-05-13T08:29:11.571Z,3.50
2019-05-13T08:31:47.107Z,4.47
2019-05-13T08:34:22.575Z,2.17
2019-05-13T08:36:53.427Z,1.05
2019-05-13T08:39:26.891Z,0.98
2019-05-13T08:41:54.118Z,0.40
2019-05-13T08:44:23.640Z,0.45
2019-05-13T08:46:57.902Z,0.45
2019-05-13T08:49:32.735Z,0.67
2019-05-13T08:52:18.361Z,0.60
2019-05-13T08:54:55.183Z,0.10
2019-05-13T08:57:26.636Z,0.40
2019-05-13T08:59:57.011Z,0.30
2019-05-13T09:02:31.379Z,0.10
2019-05-13T09:05:05.306Z,0.15
2019-05-13T09:07:42.321Z,0.10
2019-05-13T09:10:21.510Z,0.28
2019-05-13T09:12:52.801Z,0.20
2019-05-13T09:15:22.448Z,0.10
2019-05-13T09:17:57.054Z,0.20
2019-05-13T09:20:33.017Z,0.35
2019-05-13T09:23:02.516Z,0.20
2019-05-13T09:25:41.567Z,0.20
2019-05-13T09:28:17.932Z,0.20
2019-05-13T09:30:47.448Z,0.20
2019-05-13T09:33:24.128Z,0.20
2019-05-13T09:35:53.836Z,0.30
2019-05-13T09:38:23.267Z,0.20
2019-05-13T09:40:53.307Z,0.10
2019-05-13T09:43:31.509Z,0.20
2019-05-13T09:46:05.090Z,0.40
2019-05-13T09:48:36.314Z,0.30
2019-05-13T09:51:09.316Z,0.40
2019-05-13T09:53:38.754Z,0.20
2019-05-13T09:56:08.777Z,0.40
2019-05-13T09:58:42.214Z,0.70
2019-05-13T10:01:13.897Z,0.30
2019-05-13T10:03:53.779Z,0.20
2019-05-13T10:06:14.666Z,0.35
2019-05-13T10:08:44.192Z,0.40
2019-05-13T10:11:13.557Z,0.70
2019-05-13T10:13:43.106Z,0.35
2019-05-13T10:16:12.610Z,0.50
2019-05-13T10:18:42.501Z,0.35
2019-05-13T10:21:13.251Z,0.40
2019-05-13T10:23:47.114Z,0.40
2019-05-13T10:26:19.009Z,0.20
2019-05-13T10:28:51.613Z,0.30
2019-05-13T10:31:21.980Z,0.20
2019-05-13T10:33:52.612Z,0.30
2019-05-13T10:36:22.577Z,0.20
2019-05-13T10:38:52.697Z,0.30
2019-05-13T10:41:24.221Z,0.10
2019-05-13T10:43:53.797Z,0.30
2019-05-13T10:46:24.611Z,0.35
2019-05-13T10:48:54.435Z,0.30
2019-05-13T10:51:23.989Z,0.20
2019-05-13T10:53:58.977Z,0.10
2019-05-13T10:56:28.418Z,0.20
2019-05-13T10:58:57.937Z,0.30
2019-05-13T11:01:27.357Z,0.20
2019-05-13T11:03:57.643Z,0.30
2019-05-13T11:06:27.238Z,0.20
2019-05-13T11:08:56.669Z,0.20
2019-05-13T11:11:34.939Z,0.30
2019-05-13T11:14:10.877Z,0.20
2019-05-13T11:16:37.501Z,0.15
2019-05-13T11:19:07.749Z,0.20
2019-05-13T11:21:37.566Z,0.17
2019-05-13T11:24:07.015Z,0.30
2019-05-13T11:26:37.005Z,0.30
